sensor_id;sensor_type;location;lat;lon;timestamp;temperature;humidity
2839;DHT22;1427;48.510;9.060;2023-05-29T00:02:20;14.30;99.90
2839;DHT22;1427;48.510;9.060;2023-05-29T00:04:48;14.20;99.90
2839;DHT22;1427;48.510;9.060;2023-05-29T00:07:17;14.10;99.90
2839;DHT22;1427;48.510;9.060;2023-05-29T00:09:46;14.10;99.90
2839;DHT22;1427;48.510;9.060;2023-05-29T00:12:14;14.10;99.90
2839;DHT22;1427;48.510;9.060;2023-05-29T00:14:42;14.20;99.90
2839;DHT22;1427;48.510;9.060;2023-05-29T00:17:11;14.10;99.90
2839;DHT22;1427;48.510;9.060;2023-05-29T00:19:42;14.00;99.90
2839;DHT22;1427;48.510;9.060;2023-05-29T00:22:10;14.00;99.90
2839;DHT22;1427;48.510;9.060;2023-05-29T00:24:39;13.90;99.90
2839;DHT22;1427;48.510;9.060;2023-05-29T00:27:07;13.80;99.90
2839;DHT22;1427;48.510;9.060;2023-05-29T00:29:36;13.80;99.90
2839;DHT22;1427;48.510;9.060;2023-05-29T00:32:05;13.80;99.90
2839;DHT22;1427;48.510;9.060;2023-05-29T00:34:35;13.80;99.90
2839;DHT22;1427;48.510;9.060;2023-05-29T00:37:03;13.70;99.90
2839;DHT22;1427;48.510;9.060;2023-05-29T00:39:32;13.70;99.90
2839;DHT22;1427;48.510;9.060;2023-05-29T00:42:00;13.60;99.90
2839;DHT22;1427;48.510;9.060;2023-05-29T00:44:28;13.50;99.90
2839;DHT22;1427;48.510;9.060;2023-05-29T00:46:57;13.40;99.90
2839;DHT22;1427;48.510;9.060;2023-05-29T00:49:25;13.40;99.90
2839;DHT22;1427;48.510;9.060;2023-05-29T00:51:55;13.40;99.90
2839;DHT22;1427;48.510;9.060;2023-05-29T00:54:28;13.30;99.90
2839;DHT22;1427;48.510;9.060;2023-05-29T00:56:57;13.40;99.90
2839;DHT22;1427;48.510;9.060;2023-05-29T00:59:26;13.30;99.90
2839;DHT22;1427;48.510;9.060;2023-05-29T01:01:57;13.20;99.90
2839;DHT22;1427;48.510;9.060;2023-05-29T01:04:26;13.10;99.90
2839;DHT22;1427;48.510;9.060;2023-05-29T01:06:55;13.10;99.90
2839;DHT22;1427;48.510;9.060;2023-05-29T01:09:24;12.90;99.90
2839;DHT22;1427;48.510;9.060;2023-05-29T01:11:59;12.80;99.90
2839;DHT22;1427;48.510;9.060;2023-05-29T01:14:39;12.70;99.90
2839;DHT22;1427;48.510;9.060;2023-05-29T01:17:14;12.80;99.90
2839;DHT22;1427;48.510;9.060;2023-05-29T01:20:06;12.90;99.90
2839;DHT22;1427;48.510;9.060;2023-05-29T01:23:01;12.90;99.90
2839;DHT22;1427;48.510;9.060;2023-05-29T01:25:48;12.80;99.90
2839;DHT22;1427;48.510;9.060;2023-05-29T01:28:21;12.80;99.90
2839;DHT22;1427;48.510;9.060;2023-05-29T01:30:51;12.70;99.90
2839;DHT22;1427;48.510;9.060;2023-05-29T01:33:21;12.70;99.90
2839;DHT22;1427;48.510;9.060;2023-05-29T01:35:49;12.70;99.90
2839;DHT22;1427;48.510;9.060;2023-05-29T01:38:17;12.70;99.90
2839;DHT22;1427;48.510;9.060;2023-05-29T01:40:46;12.60;99.90
2839;DHT22;1427;48.510;9.060;2023-05-29T01:43:14;12.50;99.90
2839;DHT22;1427;48.510;9.060;2023-05-29T01:45:44;12.40;99.90
2839;DHT22;1427;48.510;9.060;2023-05-29T01:48:13;12.30;99.90
2839;DHT22;1427;48.510;9.060;2023-05-29T01:50:41;12.20;99.90
2839;DHT22;1427;48.510;9.060;2023-05-29T01:53:11;12.20;99.90
2839;DHT22;1427;48.510;9.060;2023-05-29T01:55:39;12.10;99.90
2839;DHT22;1427;48.510;9.060;2023-05-29T01:58:07;12.20;99.90
2839;DHT22;1427;48.510;9.060;2023-05-29T02:00:35;12.10;99.90
2839;DHT22;1427;48.510;9.060;2023-05-29T02:03:04;12.10;99.90
2839;DHT22;1427;48.510;9.060;2023-05-29T02:05:32;12.00;99.90
2839;DHT22;1427;48.510;9.060;2023-05-29T02:08:00;12.00;99.90
2839;DHT22;1427;48.510;9.060;2023-05-29T02:10:28;11.80;99.90
2839;DHT22;1427;48.510;9.060;2023-05-29T02:12:58;11.80;99.90
2839;DHT22;1427;48.510;9.060;2023-05-29T02:15:26;11.70;99.90
2839;DHT22;1427;48.510;9.060;2023-05-29T02:17:54;11.60;99.90
2839;DHT22;1427;48.510;9.060;2023-05-29T02:20:24;11.60;99.90
2839;DHT22;1427;48.510;9.060;2023-05-29T02:22:52;11.60;99.90
2839;DHT22;1427;48.510;9.060;2023-05-29T02:25:20;11.60;99.90
2839;DHT22;1427;48.510;9.060;2023-05-29T02:27:48;11.50;99.90
2839;DHT22;1427;48.510;9.060;2023-05-29T02:30:16;11.40;99.90
2839;DHT22;1427;48.510;9.060;2023-05-29T02:32:44;11.40;99.90
2839;DHT22;1427;48.510;9.060;2023-05-29T02:35:12;11.50;99.90
2839;DHT22;1427;48.510;9.060;2023-05-29T02:37:43;11.40;99.90
2839;DHT22;1427;48.510;9.060;2023-05-29T02:40:12;11.40;99.90
2839;DHT22;1427;48.510;9.060;2023-05-29T02:42:40;11.40;99.90
2839;DHT22;1427;48.510;9.060;2023-05-29T02:45:09;11.40;99.90
2839;DHT22;1427;48.510;9.060;2023-05-29T02:47:37;11.50;99.90
2839;DHT22;1427;48.510;9.060;2023-05-29T02:50:06;11.50;99.90
2839;DHT22;1427;48.510;9.060;2023-05-29T02:52:35;11.50;99.90
2839;DHT22;1427;48.510;9.060;2023-05-29T02:55:06;11.50;99.90
2839;DHT22;1427;48.510;9.060;2023-05-29T02:57:34;11.50;99.90
2839;DHT22;1427;48.510;9.060;2023-05-29T03:00:02;11.40;99.90
2839;DHT22;1427;48.510;9.060;2023-05-29T03:02:34;11.40;99.90
2839;DHT22;1427;48.510;9.060;2023-05-29T03:05:03;11.40;99.90
2839;DHT22;1427;48.510;9.060;2023-05-29T03:07:31;11.40;99.90
2839;DHT22;1427;48.510;9.060;2023-05-29T03:09:59;11.40;99.90
2839;DHT22;1427;48.510;9.060;2023-05-29T03:12:29;11.40;99.90
2839;DHT22;1427;48.510;9.060;2023-05-29T03:14:57;11.50;99.90
2839;DHT22;1427;48.510;9.060;2023-05-29T03:17:25;11.40;99.90
2839;DHT22;1427;48.510;9.060;2023-05-29T03:19:53;11.30;99.90
2839;DHT22;1427;48.510;9.060;2023-05-29T03:22:21;11.20;99.90
2839;DHT22;1427;48.510;9.060;2023-05-29T03:24:49;11.10;99.90
2839;DHT22;1427;48.510;9.060;2023-05-29T03:27:17;11.00;99.90
2839;DHT22;1427;48.510;9.060;2023-05-29T03:29:46;10.90;99.90
2839;DHT22;1427;48.510;9.060;2023-05-29T03:32:15;10.80;99.90
2839;DHT22;1427;48.510;9.060;2023-05-29T03:34:42;10.80;99.90
2839;DHT22;1427;48.510;9.060;2023-05-29T03:37:11;10.80;99.90
2839;DHT22;1427;48.510;9.060;2023-05-29T03:39:39;10.90;99.90
2839;DHT22;1427;48.510;9.060;2023-05-29T03:42:07;10.90;99.90
2839;DHT22;1427;48.510;9.060;2023-05-29T03:44:35;10.80;99.90
2839;DHT22;1427;48.510;9.060;2023-05-29T03:47:04;10.90;99.90
2839;DHT22;1427;48.510;9.060;2023-05-29T03:49:33;10.90;99.90
2839;DHT22;1427;48.510;9.060;2023-05-29T03:52:04;10.90;99.90
2839;DHT22;1427;48.510;9.060;2023-05-29T03:54:33;10.90;99.90
2839;DHT22;1427;48.510;9.060;2023-05-29T03:57:01;10.90;99.90
2839;DHT22;1427;48.510;9.060;2023-05-29T03:59:29;10.90;99.90
2839;DHT22;1427;48.510;9.060;2023-05-29T04:01:57;10.90;99.90
2839;DHT22;1427;48.510;9.060;2023-05-29T04:04:26;10.90;99.90
2839;DHT22;1427;48.510;9.060;2023-05-29T04:06:54;11.00;99.90
2839;DHT22;1427;48.510;9.060;2023-05-29T04:09:23;11.00;99.90
2839;DHT22;1427;48.510;9.060;2023-05-29T04:11:51;11.00;99.90
2839;DHT22;1427;48.510;9.060;2023-05-29T04:14:21;11.00;99.90
2839;DHT22;1427;48.510;9.060;2023-05-29T04:16:49;10.90;99.90
2839;DHT22;1427;48.510;9.060;2023-05-29T04:19:17;10.90;99.90
2839;DHT22;1427;48.510;9.060;2023-05-29T04:21:47;10.90;99.90
2839;DHT22;1427;48.510;9.060;2023-05-29T04:24:15;10.90;99.90
2839;DHT22;1427;48.510;9.060;2023-05-29T04:26:43;10.80;99.90
2839;DHT22;1427;48.510;9.060;2023-05-29T04:29:12;10.90;99.90
2839;DHT22;1427;48.510;9.060;2023-05-29T04:31:40;10.90;99.90
2839;DHT22;1427;48.510;9.060;2023-05-29T04:34:08;11.00;99.90
2839;DHT22;1427;48.510;9.060;2023-05-29T04:36:37;11.00;99.90
2839;DHT22;1427;48.510;9.060;2023-05-29T04:39:07;11.10;99.90
2839;DHT22;1427;48.510;9.060;2023-05-29T04:41:35;11.20;99.90
2839;DHT22;1427;48.510;9.060;2023-05-29T04:44:04;11.30;99.90
2839;DHT22;1427;48.510;9.060;2023-05-29T04:46:32;11.30;99.90
2839;DHT22;1427;48.510;9.060;2023-05-29T04:49:02;11.40;99.90
2839;DHT22;1427;48.510;9.060;2023-05-29T04:51:31;11.40;99.90
2839;DHT22;1427;48.510;9.060;2023-05-29T04:53:59;11.30;99.90
2839;DHT22;1427;48.510;9.060;2023-05-29T04:56:29;11.40;99.90
2839;DHT22;1427;48.510;9.060;2023-05-29T04:58:57;11.50;99.90
2839;DHT22;1427;48.510;9.060;2023-05-29T05:01:25;11.60;99.90
2839;DHT22;1427;48.510;9.060;2023-05-29T05:03:53;11.80;99.90
2839;DHT22;1427;48.510;9.060;2023-05-29T05:06:23;12.00;99.90
2839;DHT22;1427;48.510;9.060;2023-05-29T05:08:52;12.10;99.90
2839;DHT22;1427;48.510;9.060;2023-05-29T05:11:22;12.10;99.90
2839;DHT22;1427;48.510;9.060;2023-05-29T05:13:52;12.10;99.90
2839;DHT22;1427;48.510;9.060;2023-05-29T05:16:20;12.30;99.90
2839;DHT22;1427;48.510;9.060;2023-05-29T05:18:48;12.30;99.90
2839;DHT22;1427;48.510;9.060;2023-05-29T05:21:16;12.20;99.90
2839;DHT22;1427;48.510;9.060;2023-05-29T05:23:45;12.30;99.90
2839;DHT22;1427;48.510;9.060;2023-05-29T05:26:24;12.30;99.90
2839;DHT22;1427;48.510;9.060;2023-05-29T05:28:55;12.40;99.90
2839;DHT22;1427;48.510;9.060;2023-05-29T05:31:24;12.50;99.90
2839;DHT22;1427;48.510;9.060;2023-05-29T05:33:53;12.60;99.90
2839;DHT22;1427;48.510;9.060;2023-05-29T05:36:21;12.70;99.90
2839;DHT22;1427;48.510;9.060;2023-05-29T05:38:49;12.80;99.90
2839;DHT22;1427;48.510;9.060;2023-05-29T05:41:17;12.90;99.90
2839;DHT22;1427;48.510;9.060;2023-05-29T05:43:45;13.00;99.90
2839;DHT22;1427;48.510;9.060;2023-05-29T05:46:15;13.40;99.90
2839;DHT22;1427;48.510;9.060;2023-05-29T05:48:44;13.60;99.90
2839;DHT22;1427;48.510;9.060;2023-05-29T05:51:13;13.90;99.90
2839;DHT22;1427;48.510;9.060;2023-05-29T05:53:41;14.00;99.90
2839;DHT22;1427;48.510;9.060;2023-05-29T05:56:09;14.30;99.90
2839;DHT22;1427;48.510;9.060;2023-05-29T05:58:37;14.40;99.90
2839;DHT22;1427;48.510;9.060;2023-05-29T06:01:05;14.50;99.90
2839;DHT22;1427;48.510;9.060;2023-05-29T06:03:35;14.50;99.90
2839;DHT22;1427;48.510;9.060;2023-05-29T06:06:05;14.80;99.90
2839;DHT22;1427;48.510;9.060;2023-05-29T06:08:34;15.10;99.90
2839;DHT22;1427;48.510;9.060;2023-05-29T06:11:02;15.10;99.90
2839;DHT22;1427;48.510;9.060;2023-05-29T06:13:31;15.10;99.90
2839;DHT22;1427;48.510;9.060;2023-05-29T06:15:59;15.30;99.90
2839;DHT22;1427;48.510;9.060;2023-05-29T06:18:27;15.40;99.90
2839;DHT22;1427;48.510;9.060;2023-05-29T06:20:57;15.60;99.90
2839;DHT22;1427;48.510;9.060;2023-05-29T06:23:26;15.80;99.90
2839;DHT22;1427;48.510;9.060;2023-05-29T06:25:54;15.90;99.90
2839;DHT22;1427;48.510;9.060;2023-05-29T06:28:22;15.90;99.90
2839;DHT22;1427;48.510;9.060;2023-05-29T06:30:50;16.30;99.90
2839;DHT22;1427;48.510;9.060;2023-05-29T06:33:18;16.30;99.90
2839;DHT22;1427;48.510;9.060;2023-05-29T06:35:48;16.60;99.90
2839;DHT22;1427;48.510;9.060;2023-05-29T06:38:18;16.50;99.90
2839;DHT22;1427;48.510;9.060;2023-05-29T06:40:46;16.60;99.90
2839;DHT22;1427;48.510;9.060;2023-05-29T06:43:14;16.70;99.90
2839;DHT22;1427;48.510;9.060;2023-05-29T06:45:42;16.90;99.90
2839;DHT22;1427;48.510;9.060;2023-05-29T06:48:10;17.00;99.90
2839;DHT22;1427;48.510;9.060;2023-05-29T06:50:38;17.10;99.90
2839;DHT22;1427;48.510;9.060;2023-05-29T06:53:06;17.50;99.90
2839;DHT22;1427;48.510;9.060;2023-05-29T06:55:36;17.70;99.90
2839;DHT22;1427;48.510;9.060;2023-05-29T06:58:04;18.00;99.90
2839;DHT22;1427;48.510;9.060;2023-05-29T07:00:32;18.10;99.90
2839;DHT22;1427;48.510;9.060;2023-05-29T07:03:00;18.10;99.90
2839;DHT22;1427;48.510;9.060;2023-05-29T07:05:28;17.90;99.90
2839;DHT22;1427;48.510;9.060;2023-05-29T07:07:56;18.00;99.90
2839;DHT22;1427;48.510;9.060;2023-05-29T07:10:24;18.40;99.90
2839;DHT22;1427;48.510;9.060;2023-05-29T07:12:53;18.80;99.90
2839;DHT22;1427;48.510;9.060;2023-05-29T07:15:21;19.00;99.90
2839;DHT22;1427;48.510;9.060;2023-05-29T07:17:49;19.00;99.90
2839;DHT22;1427;48.510;9.060;2023-05-29T07:20:18;19.20;99.90
2839;DHT22;1427;48.510;9.060;2023-05-29T07:22:47;19.40;99.80
2839;DHT22;1427;48.510;9.060;2023-05-29T07:25:15;19.60;99.60
2839;DHT22;1427;48.510;9.060;2023-05-29T07:27:43;19.60;99.70
2839;DHT22;1427;48.510;9.060;2023-05-29T07:30:13;19.70;99.40
2839;DHT22;1427;48.510;9.060;2023-05-29T07:32:41;19.70;98.80
2839;DHT22;1427;48.510;9.060;2023-05-29T07:35:09;19.70;98.80
2839;DHT22;1427;48.510;9.060;2023-05-29T07:37:37;19.70;99.70
2839;DHT22;1427;48.510;9.060;2023-05-29T07:40:06;19.80;99.90
2839;DHT22;1427;48.510;9.060;2023-05-29T07:42:34;20.00;99.90
2839;DHT22;1427;48.510;9.060;2023-05-29T07:45:03;20.20;99.90
2839;DHT22;1427;48.510;9.060;2023-05-29T07:47:33;20.40;99.90
2839;DHT22;1427;48.510;9.060;2023-05-29T07:50:03;20.60;99.80
2839;DHT22;1427;48.510;9.060;2023-05-29T07:52:32;20.80;99.90
2839;DHT22;1427;48.510;9.060;2023-05-29T07:55:00;21.10;99.70
2839;DHT22;1427;48.510;9.060;2023-05-29T07:57:28;21.30;99.30
2839;DHT22;1427;48.510;9.060;2023-05-29T07:59:57;21.60;98.20
2839;DHT22;1427;48.510;9.060;2023-05-29T08:02:25;21.90;97.90
2839;DHT22;1427;48.510;9.060;2023-05-29T08:04:55;21.90;97.70
2839;DHT22;1427;48.510;9.060;2023-05-29T08:07:23;22.10;97.70
2839;DHT22;1427;48.510;9.060;2023-05-29T08:09:53;22.10;97.80
2839;DHT22;1427;48.510;9.060;2023-05-29T08:12:22;22.20;96.50
2839;DHT22;1427;48.510;9.060;2023-05-29T08:14:50;22.10;96.60
2839;DHT22;1427;48.510;9.060;2023-05-29T08:17:18;22.30;97.50
2839;DHT22;1427;48.510;9.060;2023-05-29T08:19:46;22.70;95.50
2839;DHT22;1427;48.510;9.060;2023-05-29T08:22:16;22.70;94.60
2839;DHT22;1427;48.510;9.060;2023-05-29T08:24:44;22.50;94.90
2839;DHT22;1427;48.510;9.060;2023-05-29T08:27:12;22.70;96.30
2839;DHT22;1427;48.510;9.060;2023-05-29T08:29:41;22.90;93.50
2839;DHT22;1427;48.510;9.060;2023-05-29T08:32:09;22.80;93.70
2839;DHT22;1427;48.510;9.060;2023-05-29T08:34:37;22.90;94.40
2839;DHT22;1427;48.510;9.060;2023-05-29T08:37:05;23.00;94.30
2839;DHT22;1427;48.510;9.060;2023-05-29T08:39:35;23.20;94.10
2839;DHT22;1427;48.510;9.060;2023-05-29T08:42:06;23.40;93.10
2839;DHT22;1427;48.510;9.060;2023-05-29T08:44:36;23.40;93.90
2839;DHT22;1427;48.510;9.060;2023-05-29T08:47:07;23.50;93.70
2839;DHT22;1427;48.510;9.060;2023-05-29T08:49:41;23.50;94.10
2839;DHT22;1427;48.510;9.060;2023-05-29T08:52:12;23.70;94.20
2839;DHT22;1427;48.510;9.060;2023-05-29T08:54:43;23.80;94.20
2839;DHT22;1427;48.510;9.060;2023-05-29T08:57:12;24.10;93.90
2839;DHT22;1427;48.510;9.060;2023-05-29T08:59:43;24.30;93.90
2839;DHT22;1427;48.510;9.060;2023-05-29T09:02:11;24.40;93.60
2839;DHT22;1427;48.510;9.060;2023-05-29T09:04:41;24.50;93.50
2839;DHT22;1427;48.510;9.060;2023-05-29T09:07:11;24.70;91.90
2839;DHT22;1427;48.510;9.060;2023-05-29T09:09:42;24.60;93.00
2839;DHT22;1427;48.510;9.060;2023-05-29T09:12:10;24.50;92.30
2839;DHT22;1427;48.510;9.060;2023-05-29T09:14:40;24.40;92.00
2839;DHT22;1427;48.510;9.060;2023-05-29T09:17:10;24.50;92.30
2839;DHT22;1427;48.510;9.060;2023-05-29T09:19:39;24.70;91.20
2839;DHT22;1427;48.510;9.060;2023-05-29T09:22:09;24.70;91.60
2839;DHT22;1427;48.510;9.060;2023-05-29T09:24:42;24.90;92.50
2839;DHT22;1427;48.510;9.060;2023-05-29T09:27:11;25.20;92.40
2839;DHT22;1427;48.510;9.060;2023-05-29T09:29:40;25.40;92.00
2839;DHT22;1427;48.510;9.060;2023-05-29T09:32:09;25.60;91.40
2839;DHT22;1427;48.510;9.060;2023-05-29T09:34:38;25.70;91.50
2839;DHT22;1427;48.510;9.060;2023-05-29T09:37:07;25.90;91.00
2839;DHT22;1427;48.510;9.060;2023-05-29T09:39:52;26.00;91.10
2839;DHT22;1427;48.510;9.060;2023-05-29T09:42:20;25.90;88.50
2839;DHT22;1427;48.510;9.060;2023-05-29T09:44:52;25.80;89.00
2839;DHT22;1427;48.510;9.060;2023-05-29T09:47:20;25.60;86.70
2839;DHT22;1427;48.510;9.060;2023-05-29T09:49:49;25.50;88.80
2839;DHT22;1427;48.510;9.060;2023-05-29T09:52:21;25.70;88.30
2839;DHT22;1427;48.510;9.060;2023-05-29T09:54:52;25.90;87.90
2839;DHT22;1427;48.510;9.060;2023-05-29T09:57:21;26.10;89.50
2839;DHT22;1427;48.510;9.060;2023-05-29T09:59:52;26.30;87.40
2839;DHT22;1427;48.510;9.060;2023-05-29T10:02:20;26.20;86.90
2839;DHT22;1427;48.510;9.060;2023-05-29T10:04:49;26.20;87.30
2839;DHT22;1427;48.510;9.060;2023-05-29T10:07:24;26.20;85.30
2839;DHT22;1427;48.510;9.060;2023-05-29T10:09:59;26.10;85.50
2839;DHT22;1427;48.510;9.060;2023-05-29T10:12:29;26.20;85.70
2839;DHT22;1427;48.510;9.060;2023-05-29T10:14:59;26.40;85.60
2839;DHT22;1427;48.510;9.060;2023-05-29T10:17:33;26.50;85.00
2839;DHT22;1427;48.510;9.060;2023-05-29T10:20:04;26.60;84.10
2839;DHT22;1427;48.510;9.060;2023-05-29T10:22:36;26.40;85.40
2839;DHT22;1427;48.510;9.060;2023-05-29T10:25:09;26.30;85.00
2839;DHT22;1427;48.510;9.060;2023-05-29T10:27:39;25.80;82.40
2839;DHT22;1427;48.510;9.060;2023-05-29T10:30:12;26.00;86.00
2839;DHT22;1427;48.510;9.060;2023-05-29T10:32:56;26.30;83.40
2839;DHT22;1427;48.510;9.060;2023-05-29T10:35:35;26.50;80.90
2839;DHT22;1427;48.510;9.060;2023-05-29T10:38:11;26.60;81.70
2839;DHT22;1427;48.510;9.060;2023-05-29T10:40:42;26.60;80.70
2839;DHT22;1427;48.510;9.060;2023-05-29T10:43:30;26.70;81.30
2839;DHT22;1427;48.510;9.060;2023-05-29T10:45:58;26.90;80.40
2839;DHT22;1427;48.510;9.060;2023-05-29T10:48:41;26.90;78.30
2839;DHT22;1427;48.510;9.060;2023-05-29T10:51:24;26.90;79.40
2839;DHT22;1427;48.510;9.060;2023-05-29T10:53:53;26.80;79.30
2839;DHT22;1427;48.510;9.060;2023-05-29T10:56:28;26.70;80.10
2839;DHT22;1427;48.510;9.060;2023-05-29T10:58:59;26.80;76.30
2839;DHT22;1427;48.510;9.060;2023-05-29T11:01:29;26.80;79.40
2839;DHT22;1427;48.510;9.060;2023-05-29T11:04:29;26.90;78.70
2839;DHT22;1427;48.510;9.060;2023-05-29T11:06:59;26.90;78.70
2839;DHT22;1427;48.510;9.060;2023-05-29T11:09:32;27.20;78.50
2839;DHT22;1427;48.510;9.060;2023-05-29T11:12:22;27.40;78.70
2839;DHT22;1427;48.510;9.060;2023-05-29T11:15:04;27.40;76.80
2839;DHT22;1427;48.510;9.060;2023-05-29T11:17:43;27.50;75.70
2839;DHT22;1427;48.510;9.060;2023-05-29T11:20:20;27.40;75.70
2839;DHT22;1427;48.510;9.060;2023-05-29T11:23:01;27.40;76.60
2839;DHT22;1427;48.510;9.060;2023-05-29T11:25:32;27.30;72.60
2839;DHT22;1427;48.510;9.060;2023-05-29T11:28:04;27.50;76.40
2839;DHT22;1427;48.510;9.060;2023-05-29T11:30:42;27.50;74.80
2839;DHT22;1427;48.510;9.060;2023-05-29T11:33:19;27.40;74.20
2839;DHT22;1427;48.510;9.060;2023-05-29T11:35:54;27.20;73.60
2839;DHT22;1427;48.510;9.060;2023-05-29T11:38:23;27.20;72.10
2839;DHT22;1427;48.510;9.060;2023-05-29T11:40:52;27.00;70.10
2839;DHT22;1427;48.510;9.060;2023-05-29T11:43:24;27.20;72.20
2839;DHT22;1427;48.510;9.060;2023-05-29T11:45:52;27.20;70.40
2839;DHT22;1427;48.510;9.060;2023-05-29T11:48:20;27.20;69.70
2839;DHT22;1427;48.510;9.060;2023-05-29T11:50:51;27.40;69.70
2839;DHT22;1427;48.510;9.060;2023-05-29T11:53:19;27.40;70.10
2839;DHT22;1427;48.510;9.060;2023-05-29T11:55:48;27.50;71.90
2839;DHT22;1427;48.510;9.060;2023-05-29T11:58:16;27.60;68.80
2839;DHT22;1427;48.510;9.060;2023-05-29T12:00:47;27.60;69.40
2839;DHT22;1427;48.510;9.060;2023-05-29T12:03:17;27.60;68.60
2839;DHT22;1427;48.510;9.060;2023-05-29T12:05:48;27.70;67.10
2839;DHT22;1427;48.510;9.060;2023-05-29T12:08:21;27.30;68.60
2839;DHT22;1427;48.510;9.060;2023-05-29T12:10:51;27.00;67.30
2839;DHT22;1427;48.510;9.060;2023-05-29T12:13:20;26.90;68.10
2839;DHT22;1427;48.510;9.060;2023-05-29T12:15:53;26.90;64.90
2839;DHT22;1427;48.510;9.060;2023-05-29T12:18:22;26.80;66.70
2839;DHT22;1427;48.510;9.060;2023-05-29T12:20:51;27.00;69.80
2839;DHT22;1427;48.510;9.060;2023-05-29T12:23:24;27.30;68.80
2839;DHT22;1427;48.510;9.060;2023-05-29T12:25:52;27.50;68.30
2839;DHT22;1427;48.510;9.060;2023-05-29T12:28:21;27.70;68.30
2839;DHT22;1427;48.510;9.060;2023-05-29T12:30:50;27.80;66.10
2839;DHT22;1427;48.510;9.060;2023-05-29T12:33:29;27.90;68.30
2839;DHT22;1427;48.510;9.060;2023-05-29T12:36:03;28.00;67.80
2839;DHT22;1427;48.510;9.060;2023-05-29T12:38:31;27.70;67.20
2839;DHT22;1427;48.510;9.060;2023-05-29T12:40:59;27.30;64.70
2839;DHT22;1427;48.510;9.060;2023-05-29T12:43:27;27.20;66.70
2839;DHT22;1427;48.510;9.060;2023-05-29T12:45:58;27.00;63.40
2839;DHT22;1427;48.510;9.060;2023-05-29T12:48:27;26.70;68.30
2839;DHT22;1427;48.510;9.060;2023-05-29T12:50:55;27.00;69.20
2839;DHT22;1427;48.510;9.060;2023-05-29T12:53:28;27.20;67.80
2839;DHT22;1427;48.510;9.060;2023-05-29T12:55:57;27.40;65.30
2839;DHT22;1427;48.510;9.060;2023-05-29T12:58:26;27.40;64.90
2839;DHT22;1427;48.510;9.060;2023-05-29T13:00:54;27.50;68.30
2839;DHT22;1427;48.510;9.060;2023-05-29T13:03:26;27.30;65.10
2839;DHT22;1427;48.510;9.060;2023-05-29T13:05:54;26.90;66.70
2839;DHT22;1427;48.510;9.060;2023-05-29T13:08:23;27.00;66.20
2839;DHT22;1427;48.510;9.060;2023-05-29T13:10:51;27.10;67.90
2839;DHT22;1427;48.510;9.060;2023-05-29T13:13:19;27.20;67.00
2839;DHT22;1427;48.510;9.060;2023-05-29T13:15:48;27.20;66.60
2839;DHT22;1427;48.510;9.060;2023-05-29T13:18:17;27.30;67.00
2839;DHT22;1427;48.510;9.060;2023-05-29T13:20:46;27.30;66.90
2839;DHT22;1427;48.510;9.060;2023-05-29T13:23:14;27.50;68.60
2839;DHT22;1427;48.510;9.060;2023-05-29T13:25:42;27.50;62.30
2839;DHT22;1427;48.510;9.060;2023-05-29T13:28:10;27.20;62.40
2839;DHT22;1427;48.510;9.060;2023-05-29T13:30:38;26.90;65.40
2839;DHT22;1427;48.510;9.060;2023-05-29T13:33:06;26.90;66.00
2839;DHT22;1427;48.510;9.060;2023-05-29T13:35:35;27.10;67.50
2839;DHT22;1427;48.510;9.060;2023-05-29T13:38:04;27.30;65.30
2839;DHT22;1427;48.510;9.060;2023-05-29T13:40:32;27.30;63.80
2839;DHT22;1427;48.510;9.060;2023-05-29T13:43:00;27.30;63.90
2839;DHT22;1427;48.510;9.060;2023-05-29T13:45:28;27.30;62.90
2839;DHT22;1427;48.510;9.060;2023-05-29T13:47:57;27.40;60.20
2839;DHT22;1427;48.510;9.060;2023-05-29T13:50:25;27.30;59.70
2839;DHT22;1427;48.510;9.060;2023-05-29T13:52:53;27.40;59.10
2839;DHT22;1427;48.510;9.060;2023-05-29T13:55:23;27.40;57.50
2839;DHT22;1427;48.510;9.060;2023-05-29T13:57:51;27.40;56.60
2839;DHT22;1427;48.510;9.060;2023-05-29T14:00:20;27.40;57.10
2839;DHT22;1427;48.510;9.060;2023-05-29T14:02:48;27.40;58.70
2839;DHT22;1427;48.510;9.060;2023-05-29T14:05:16;27.20;57.00
2839;DHT22;1427;48.510;9.060;2023-05-29T14:07:44;26.90;58.70
2839;DHT22;1427;48.510;9.060;2023-05-29T14:10:12;26.70;59.50
2839;DHT22;1427;48.510;9.060;2023-05-29T14:12:42;26.70;58.60
2839;DHT22;1427;48.510;9.060;2023-05-29T14:15:10;26.60;58.40
2839;DHT22;1427;48.510;9.060;2023-05-29T14:17:38;26.50;58.90
2839;DHT22;1427;48.510;9.060;2023-05-29T14:20:07;26.60;59.70
2839;DHT22;1427;48.510;9.060;2023-05-29T14:22:35;26.70;59.20
2839;DHT22;1427;48.510;9.060;2023-05-29T14:25:04;26.70;58.20
2839;DHT22;1427;48.510;9.060;2023-05-29T14:27:33;26.80;59.20
2839;DHT22;1427;48.510;9.060;2023-05-29T14:30:03;26.90;58.80
2839;DHT22;1427;48.510;9.060;2023-05-29T14:32:31;26.90;59.40
2839;DHT22;1427;48.510;9.060;2023-05-29T14:34:59;26.90;59.50
2839;DHT22;1427;48.510;9.060;2023-05-29T14:37:28;26.90;58.90
2839;DHT22;1427;48.510;9.060;2023-05-29T14:39:56;27.00;57.70
2839;DHT22;1427;48.510;9.060;2023-05-29T14:42:24;27.00;58.60
2839;DHT22;1427;48.510;9.060;2023-05-29T14:44:52;27.00;59.60
2839;DHT22;1427;48.510;9.060;2023-05-29T14:47:22;27.00;59.20
2839;DHT22;1427;48.510;9.060;2023-05-29T14:49:50;26.70;55.40
2839;DHT22;1427;48.510;9.060;2023-05-29T14:52:18;26.60;56.80
2839;DHT22;1427;48.510;9.060;2023-05-29T14:54:47;26.60;57.70
2839;DHT22;1427;48.510;9.060;2023-05-29T14:57:15;26.60;55.60
2839;DHT22;1427;48.510;9.060;2023-05-29T14:59:43;26.50;54.60
2839;DHT22;1427;48.510;9.060;2023-05-29T15:02:11;26.40;56.20
2839;DHT22;1427;48.510;9.060;2023-05-29T15:04:40;26.40;56.70
2839;DHT22;1427;48.510;9.060;2023-05-29T15:07:08;26.40;58.20
2839;DHT22;1427;48.510;9.060;2023-05-29T15:09:36;26.40;57.30
2839;DHT22;1427;48.510;9.060;2023-05-29T15:12:05;26.40;58.10
2839;DHT22;1427;48.510;9.060;2023-05-29T15:14:34;26.50;57.20
2839;DHT22;1427;48.510;9.060;2023-05-29T15:17:02;26.40;56.40
2839;DHT22;1427;48.510;9.060;2023-05-29T15:19:31;26.40;56.40
2839;DHT22;1427;48.510;9.060;2023-05-29T15:22:00;26.30;58.40
2839;DHT22;1427;48.510;9.060;2023-05-29T15:24:28;26.40;58.50
2839;DHT22;1427;48.510;9.060;2023-05-29T15:26:56;26.40;58.10
2839;DHT22;1427;48.510;9.060;2023-05-29T15:29:26;26.50;57.40
2839;DHT22;1427;48.510;9.060;2023-05-29T15:31:54;26.40;57.00
2839;DHT22;1427;48.510;9.060;2023-05-29T15:34:22;26.20;55.80
2839;DHT22;1427;48.510;9.060;2023-05-29T15:36:50;26.30;56.40
2839;DHT22;1427;48.510;9.060;2023-05-29T15:39:19;26.20;55.70
2839;DHT22;1427;48.510;9.060;2023-05-29T15:41:47;26.00;56.90
2839;DHT22;1427;48.510;9.060;2023-05-29T15:44:15;25.90;56.80
2839;DHT22;1427;48.510;9.060;2023-05-29T15:46:43;26.00;56.60
2839;DHT22;1427;48.510;9.060;2023-05-29T15:49:11;26.00;56.10
2839;DHT22;1427;48.510;9.060;2023-05-29T15:51:39;26.00;56.50
2839;DHT22;1427;48.510;9.060;2023-05-29T15:54:09;25.90;57.20
2839;DHT22;1427;48.510;9.060;2023-05-29T15:56:39;25.80;55.30
2839;DHT22;1427;48.510;9.060;2023-05-29T15:59:07;25.80;55.90
2839;DHT22;1427;48.510;9.060;2023-05-29T16:01:35;25.80;56.80
2839;DHT22;1427;48.510;9.060;2023-05-29T16:04:03;25.80;57.60
2839;DHT22;1427;48.510;9.060;2023-05-29T16:06:31;25.80;56.90
2839;DHT22;1427;48.510;9.060;2023-05-29T16:08:59;25.70;55.50
2839;DHT22;1427;48.510;9.060;2023-05-29T16:11:27;25.70;56.40
2839;DHT22;1427;48.510;9.060;2023-05-29T16:13:56;25.70;56.80
2839;DHT22;1427;48.510;9.060;2023-05-29T16:16:24;25.70;56.40
2839;DHT22;1427;48.510;9.060;2023-05-29T16:18:56;25.70;55.30